MDT,Max TemperatureF,Mean TemperatureF,Min TemperatureF,Max Dew PointF,MeanDew PointF,Min DewpointF,Max Humidity, Mean Humidity, Min Humidity, Max Sea Level PressureIn, Mean Sea Level PressureIn, Min Sea Level PressureIn, Max VisibilityMiles, Mean VisibilityMiles, Min VisibilityMiles, Max Wind SpeedMPH, Mean Wind SpeedMPH, Max Gust SpeedMPH,PrecipitationIn, CloudCover, Events, WindDirDegrees
2013-4-1,68,54,39,32,14,7,57,22,9,30.17,30.11,30.03,10,10,10,26,9,33,0.00,0,,221
2013-4-2,53,42,32,34,27,9,93,61,16,30.10,30.04,29.96,10,9,2,22,8,28,0.00,2,,137
2013-4-3,57,42,28,32,27,19,100,62,23,30.23,30.15,30.09,10,9,2,14,7,24,0.00,3,Snow,147
2013-4-4,66,50,35,27,16,1,70,30,8,30.31,30.25,30.21,10,10,10,13,7,22,0.00,0,,316
2013-4-5,68,54,41,19,12,5,33,18,11,30.26,30.15,30.03,10,10,10,26,9,36,0.00,0,,227
2013-4-6,68,57,46,18,14,9,29,18,11,30.13,30.06,30.02,10,10,10,18,10,26,0.00,0,,287
2013-4-7,68,57,46,18,15,10,27,18,12,30.03,29.97,29.90,10,10,10,23,9,30,0.00,0,,267
2013-4-8,66,56,46,25,18,14,34,22,14,29.92,29.76,29.63,10,9,5,34,13,54,0.00,0,,214
2013-4-9,55,44,32,32,22,10,81,44,22,29.90,29.72,29.57,10,8,2,29,19,44,0.00,2,Rain,244
2013-4-10,44,34,23,25,17,10,86,54,29,30.01,29.95,29.91,10,10,1,15,6,20,0.00,5,Snow,141
2013-4-11,59,44,28,23,15,10,69,33,17,30.01,29.93,29.90,10,10,10,28,10,40,0.00,1,,292
2013-4-12,59,49,39,27,22,16,56,34,23,30.02,29.99,29.96,10,10,10,16,6,30,0.00,2,,249
2013-4-13,66,54,41,21,16,10,42,24,11,30.03,29.93,29.82,10,10,10,20,7,30,0.00,1,,249
2013-4-14,71,60,48,19,16,14,25,19,11,29.86,29.80,29.77,10,10,9,33,18,39,0.00,0,,250
2013-4-15,68,57,46,25,18,14,43,21,12,29.92,29.87,29.84,10,10,10,31,16,43,0.00,0,,214
2013-4-16,71,60,50,18,11,3,26,15,9,30.00,29.94,29.88,10,10,8,36,23,47,0.00,0,,216
2013-4-17,66,50,35,23,11,5,52,21,10,29.97,29.82,29.70,10,9,1,55,24,69,0.00,1,,241
2013-4-18,46,36,26,25,8,-6,93,38,13,30.24,30.06,29.96,10,10,10,25,14,37,0.00,1,,309
2013-4-19,59,42,26,0,-7,-11,31,15,5,30.28,30.20,30.10,10,10,10,18,9,26,0.00,0,,286
2013-4-20,64,48,33,5,-2,-11,18,11,9,30.14,30.04,29.96,10,10,10,25,10,41,0.00,0,,283
2013-4-21,66,54,41,14,10,5,31,18,10,30.23,30.17,30.12,10,10,10,23,11,30,0.00,0,,292
2013-4-22,73,60,48,14,8,5,24,13,7,30.16,30.08,29.98,10,10,10,23,11,30,0.00,0,,270
2013-4-23,62,46,28,28,23,7,87,55,11,30.24,30.09,30.00,10,9,4,18,11,28,0.00,1,,126
2013-4-24,59,39,19,21,18,14,86,49,22,30.26,30.22,30.16,10,10,10,16,8,20,0.00,0,,131
2013-4-25,68,52,35,32,23,16,56,37,13,30.28,30.18,30.06,10,10,10,30,7,39,0.00,1,,161
2013-4-26,68,57,46,25,12,7,35,17,11,30.35,30.22,30.12,10,10,10,22,14,34,0.00,1,,310
2013-4-27,64,52,39,28,23,18,61,31,16,30.36,30.29,30.20,10,10,10,20,8,36,0.00,1,,178
2013-4-28,71,56,41,19,14,5,42,19,8,30.23,30.15,30.06,10,10,10,14,4,23,0.00,0,,295
2013-4-29,77,64,50,14,7,1,20,11,6,30.08,30.03,29.96,10,10,10,18,7,32,0.00,0,,288
2013-4-30,77,64,50,14,9,1,17,11,7,30.02,29.97,29.93,10,10,10,21,11,34,0.00,0,,272